sensor_id;sensor_type;location;lat;lon;timestamp;temperature;humidity
73777;DHT22;62088;50.240;2.696;2024-03-22T00:01:49;11.10;83.70
73777;DHT22;62088;50.240;2.696;2024-03-22T00:04:17;11.10;83.70
73777;DHT22;62088;50.240;2.696;2024-03-22T00:06:44;11.10;83.70
73777;DHT22;62088;50.240;2.696;2024-03-22T00:09:11;11.10;83.70
73777;DHT22;62088;50.240;2.696;2024-03-22T00:11:38;11.00;83.70
73777;DHT22;62088;50.240;2.696;2024-03-22T00:14:04;11.00;83.70
73777;DHT22;62088;50.240;2.696;2024-03-22T00:16:33;11.00;83.70
73777;DHT22;62088;50.240;2.696;2024-03-22T00:18:59;11.00;83.80
73777;DHT22;62088;50.240;2.696;2024-03-22T00:21:26;11.00;83.80
73777;DHT22;62088;50.240;2.696;2024-03-22T00:23:52;11.00;83.80
73777;DHT22;62088;50.240;2.696;2024-03-22T00:26:18;11.00;83.80
73777;DHT22;62088;50.240;2.696;2024-03-22T00:28:44;11.00;83.80
73777;DHT22;62088;50.240;2.696;2024-03-22T00:31:10;11.00;83.80
73777;DHT22;62088;50.240;2.696;2024-03-22T00:33:36;11.00;83.80
73777;DHT22;62088;50.240;2.696;2024-03-22T00:36:03;11.00;83.80
73777;DHT22;62088;50.240;2.696;2024-03-22T00:38:29;10.90;83.80
73777;DHT22;62088;50.240;2.696;2024-03-22T00:40:55;10.90;83.90
73777;DHT22;62088;50.240;2.696;2024-03-22T00:43:21;11.00;83.90
73777;DHT22;62088;50.240;2.696;2024-03-22T00:45:47;11.00;83.90
73777;DHT22;62088;50.240;2.696;2024-03-22T00:48:13;11.00;83.90
73777;DHT22;62088;50.240;2.696;2024-03-22T00:50:39;11.00;83.90
73777;DHT22;62088;50.240;2.696;2024-03-22T00:53:05;11.00;83.90
73777;DHT22;62088;50.240;2.696;2024-03-22T00:55:33;11.00;84.00
73777;DHT22;62088;50.240;2.696;2024-03-22T00:58:00;10.90;84.00
73777;DHT22;62088;50.240;2.696;2024-03-22T01:00:26;10.90;84.00
73777;DHT22;62088;50.240;2.696;2024-03-22T01:02:53;10.90;84.00
73777;DHT22;62088;50.240;2.696;2024-03-22T01:05:19;10.90;84.00
73777;DHT22;62088;50.240;2.696;2024-03-22T01:07:45;10.90;84.00
73777;DHT22;62088;50.240;2.696;2024-03-22T01:10:11;10.90;84.00
73777;DHT22;62088;50.240;2.696;2024-03-22T01:12:38;10.90;84.00
73777;DHT22;62088;50.240;2.696;2024-03-22T01:15:06;10.90;84.00
73777;DHT22;62088;50.240;2.696;2024-03-22T01:17:33;10.90;84.10
73777;DHT22;62088;50.240;2.696;2024-03-22T01:19:59;10.90;84.10
73777;DHT22;62088;50.240;2.696;2024-03-22T01:22:25;10.90;84.10
73777;DHT22;62088;50.240;2.696;2024-03-22T01:24:52;10.90;84.10
73777;DHT22;62088;50.240;2.696;2024-03-22T01:27:18;10.80;84.10
73777;DHT22;62088;50.240;2.696;2024-03-22T01:29:44;10.80;84.20
73777;DHT22;62088;50.240;2.696;2024-03-22T01:32:10;10.80;84.20
73777;DHT22;62088;50.240;2.696;2024-03-22T01:34:36;10.80;84.20
73777;DHT22;62088;50.240;2.696;2024-03-22T01:37:02;10.80;84.20
73777;DHT22;62088;50.240;2.696;2024-03-22T01:39:28;10.80;84.20
73777;DHT22;62088;50.240;2.696;2024-03-22T01:41:54;10.70;84.20
73777;DHT22;62088;50.240;2.696;2024-03-22T01:44:27;10.70;84.20
73777;DHT22;62088;50.240;2.696;2024-03-22T01:46:54;10.70;84.30
73777;DHT22;62088;50.240;2.696;2024-03-22T01:49:21;10.70;84.40
73777;DHT22;62088;50.240;2.696;2024-03-22T01:51:47;10.60;84.40
73777;DHT22;62088;50.240;2.696;2024-03-22T01:54:15;10.70;84.40
73777;DHT22;62088;50.240;2.696;2024-03-22T01:56:42;10.70;84.40
73777;DHT22;62088;50.240;2.696;2024-03-22T01:59:09;10.70;84.40
73777;DHT22;62088;50.240;2.696;2024-03-22T02:01:36;10.70;84.40
73777;DHT22;62088;50.240;2.696;2024-03-22T02:04:02;10.60;84.40
73777;DHT22;62088;50.240;2.696;2024-03-22T02:06:28;10.60;84.40
73777;DHT22;62088;50.240;2.696;2024-03-22T02:08:56;10.70;84.40
73777;DHT22;62088;50.240;2.696;2024-03-22T02:11:22;10.60;84.40
73777;DHT22;62088;50.240;2.696;2024-03-22T02:13:48;10.70;84.50
73777;DHT22;62088;50.240;2.696;2024-03-22T02:16:15;10.60;84.40
73777;DHT22;62088;50.240;2.696;2024-03-22T02:18:41;10.70;84.50
73777;DHT22;62088;50.240;2.696;2024-03-22T02:21:07;10.70;84.40
73777;DHT22;62088;50.240;2.696;2024-03-22T02:23:34;10.70;84.40
73777;DHT22;62088;50.240;2.696;2024-03-22T02:26:02;10.70;84.30
73777;DHT22;62088;50.240;2.696;2024-03-22T02:28:28;10.70;84.30
73777;DHT22;62088;50.240;2.696;2024-03-22T02:30:54;10.60;84.30
73777;DHT22;62088;50.240;2.696;2024-03-22T02:33:20;10.70;84.30
73777;DHT22;62088;50.240;2.696;2024-03-22T02:35:48;10.70;84.30
73777;DHT22;62088;50.240;2.696;2024-03-22T02:38:14;10.60;84.30
73777;DHT22;62088;50.240;2.696;2024-03-22T02:40:40;10.60;84.30
73777;DHT22;62088;50.240;2.696;2024-03-22T02:43:06;10.60;84.20
73777;DHT22;62088;50.240;2.696;2024-03-22T02:45:32;10.60;84.20
73777;DHT22;62088;50.240;2.696;2024-03-22T02:47:58;10.60;84.20
73777;DHT22;62088;50.240;2.696;2024-03-22T02:50:24;10.60;84.20
73777;DHT22;62088;50.240;2.696;2024-03-22T02:52:50;10.60;84.10
73777;DHT22;62088;50.240;2.696;2024-03-22T02:55:16;10.60;84.10
73777;DHT22;62088;50.240;2.696;2024-03-22T02:57:42;10.60;84.10
73777;DHT22;62088;50.240;2.696;2024-03-22T03:00:09;10.60;84.10
73777;DHT22;62088;50.240;2.696;2024-03-22T03:02:35;10.60;84.10
73777;DHT22;62088;50.240;2.696;2024-03-22T03:05:02;10.50;84.20
73777;DHT22;62088;50.240;2.696;2024-03-22T03:07:29;10.50;84.10
73777;DHT22;62088;50.240;2.696;2024-03-22T03:09:55;10.50;84.10
73777;DHT22;62088;50.240;2.696;2024-03-22T03:12:21;10.50;84.20
73777;DHT22;62088;50.240;2.696;2024-03-22T03:14:47;10.50;84.20
73777;DHT22;62088;50.240;2.696;2024-03-22T03:17:13;10.50;84.20
73777;DHT22;62088;50.240;2.696;2024-03-22T03:19:39;10.50;84.20
73777;DHT22;62088;50.240;2.696;2024-03-22T03:22:05;10.50;84.20
73777;DHT22;62088;50.240;2.696;2024-03-22T03:24:31;10.50;84.30
73777;DHT22;62088;50.240;2.696;2024-03-22T03:26:57;10.50;84.30
73777;DHT22;62088;50.240;2.696;2024-03-22T03:29:23;10.50;84.30
73777;DHT22;62088;50.240;2.696;2024-03-22T03:31:50;10.50;84.30
73777;DHT22;62088;50.240;2.696;2024-03-22T03:34:16;10.50;84.40
73777;DHT22;62088;50.240;2.696;2024-03-22T03:36:42;10.50;84.40
73777;DHT22;62088;50.240;2.696;2024-03-22T03:39:08;10.50;84.50
73777;DHT22;62088;50.240;2.696;2024-03-22T03:41:34;10.50;84.50
73777;DHT22;62088;50.240;2.696;2024-03-22T03:44:00;10.50;84.50
73777;DHT22;62088;50.240;2.696;2024-03-22T03:46:26;10.50;84.50
73777;DHT22;62088;50.240;2.696;2024-03-22T03:48:52;10.50;84.60
73777;DHT22;62088;50.240;2.696;2024-03-22T03:51:18;10.50;84.60
73777;DHT22;62088;50.240;2.696;2024-03-22T03:53:44;10.50;84.60
73777;DHT22;62088;50.240;2.696;2024-03-22T03:56:10;10.50;84.60
73777;DHT22;62088;50.240;2.696;2024-03-22T03:58:36;10.50;84.60
73777;DHT22;62088;50.240;2.696;2024-03-22T04:01:06;10.40;84.60
73777;DHT22;62088;50.240;2.696;2024-03-22T04:03:32;10.40;84.60
73777;DHT22;62088;50.240;2.696;2024-03-22T04:05:58;10.40;84.60
73777;DHT22;62088;50.240;2.696;2024-03-22T04:08:28;10.40;84.60
73777;DHT22;62088;50.240;2.696;2024-03-22T04:10:56;10.40;84.70
73777;DHT22;62088;50.240;2.696;2024-03-22T04:13:24;10.40;84.70
73777;DHT22;62088;50.240;2.696;2024-03-22T04:15:50;10.40;84.70
73777;DHT22;62088;50.240;2.696;2024-03-22T04:18:16;10.40;84.70
73777;DHT22;62088;50.240;2.696;2024-03-22T04:20:42;10.40;84.60
73777;DHT22;62088;50.240;2.696;2024-03-22T04:23:09;10.40;84.70
73777;DHT22;62088;50.240;2.696;2024-03-22T04:25:35;10.40;84.70
73777;DHT22;62088;50.240;2.696;2024-03-22T04:28:01;10.40;84.70
73777;DHT22;62088;50.240;2.696;2024-03-22T04:30:27;10.40;84.70
73777;DHT22;62088;50.240;2.696;2024-03-22T04:32:53;10.40;84.70
73777;DHT22;62088;50.240;2.696;2024-03-22T04:35:20;10.40;84.70
73777;DHT22;62088;50.240;2.696;2024-03-22T04:37:46;10.40;84.70
73777;DHT22;62088;50.240;2.696;2024-03-22T04:40:12;10.40;84.70
73777;DHT22;62088;50.240;2.696;2024-03-22T04:42:38;10.40;84.70
73777;DHT22;62088;50.240;2.696;2024-03-22T04:45:04;10.40;84.70
73777;DHT22;62088;50.240;2.696;2024-03-22T04:47:30;10.40;84.80
73777;DHT22;62088;50.240;2.696;2024-03-22T04:49:56;10.40;84.70
73777;DHT22;62088;50.240;2.696;2024-03-22T04:52:22;10.40;84.70
73777;DHT22;62088;50.240;2.696;2024-03-22T04:54:48;10.40;84.70
73777;DHT22;62088;50.240;2.696;2024-03-22T04:57:15;10.40;84.70
73777;DHT22;62088;50.240;2.696;2024-03-22T04:59:41;10.40;84.70
73777;DHT22;62088;50.240;2.696;2024-03-22T05:02:07;10.40;84.70
73777;DHT22;62088;50.240;2.696;2024-03-22T05:04:33;10.40;84.70
73777;DHT22;62088;50.240;2.696;2024-03-22T05:06:59;10.40;84.70
73777;DHT22;62088;50.240;2.696;2024-03-22T05:09:25;10.40;84.80
73777;DHT22;62088;50.240;2.696;2024-03-22T05:11:51;10.40;84.80
73777;DHT22;62088;50.240;2.696;2024-03-22T05:14:19;10.40;84.80
73777;DHT22;62088;50.240;2.696;2024-03-22T05:16:45;10.40;84.80
73777;DHT22;62088;50.240;2.696;2024-03-22T05:19:11;10.40;84.80
73777;DHT22;62088;50.240;2.696;2024-03-22T05:21:37;10.40;84.80
73777;DHT22;62088;50.240;2.696;2024-03-22T05:24:03;10.40;84.80
73777;DHT22;62088;50.240;2.696;2024-03-22T05:26:29;10.40;84.80
73777;DHT22;62088;50.240;2.696;2024-03-22T05:28:58;10.40;84.80
73777;DHT22;62088;50.240;2.696;2024-03-22T05:31:24;10.40;84.80
73777;DHT22;62088;50.240;2.696;2024-03-22T05:33:50;10.40;84.80
73777;DHT22;62088;50.240;2.696;2024-03-22T05:36:15;10.40;84.90
73777;DHT22;62088;50.240;2.696;2024-03-22T05:38:41;10.40;84.90
73777;DHT22;62088;50.240;2.696;2024-03-22T05:41:07;10.40;84.90
73777;DHT22;62088;50.240;2.696;2024-03-22T05:43:34;10.40;84.90
73777;DHT22;62088;50.240;2.696;2024-03-22T05:46:00;10.40;84.90
73777;DHT22;62088;50.240;2.696;2024-03-22T05:48:26;10.40;84.90
73777;DHT22;62088;50.240;2.696;2024-03-22T05:50:52;10.40;84.90
73777;DHT22;62088;50.240;2.696;2024-03-22T05:53:18;10.40;84.90
73777;DHT22;62088;50.240;2.696;2024-03-22T05:55:44;10.40;84.90
73777;DHT22;62088;50.240;2.696;2024-03-22T05:58:10;10.40;84.90
73777;DHT22;62088;50.240;2.696;2024-03-22T06:00:36;10.40;84.90
73777;DHT22;62088;50.240;2.696;2024-03-22T06:03:03;10.40;85.00
73777;DHT22;62088;50.240;2.696;2024-03-22T06:05:29;10.40;85.00
73777;DHT22;62088;50.240;2.696;2024-03-22T06:07:55;10.40;85.00
73777;DHT22;62088;50.240;2.696;2024-03-22T06:10:21;10.40;85.10
73777;DHT22;62088;50.240;2.696;2024-03-22T06:12:48;10.40;85.10
73777;DHT22;62088;50.240;2.696;2024-03-22T06:15:14;10.40;85.10
73777;DHT22;62088;50.240;2.696;2024-03-22T06:17:40;10.50;85.10
73777;DHT22;62088;50.240;2.696;2024-03-22T06:20:08;10.40;85.10
73777;DHT22;62088;50.240;2.696;2024-03-22T06:22:35;10.40;85.10
73777;DHT22;62088;50.240;2.696;2024-03-22T06:25:01;10.40;85.10
73777;DHT22;62088;50.240;2.696;2024-03-22T06:27:28;10.40;85.10
73777;DHT22;62088;50.240;2.696;2024-03-22T06:29:54;10.40;85.20
73777;DHT22;62088;50.240;2.696;2024-03-22T06:32:20;10.40;85.20
73777;DHT22;62088;50.240;2.696;2024-03-22T06:34:46;10.40;85.10
73777;DHT22;62088;50.240;2.696;2024-03-22T06:37:12;10.40;85.10
73777;DHT22;62088;50.240;2.696;2024-03-22T06:39:38;10.40;85.10
73777;DHT22;62088;50.240;2.696;2024-03-22T06:42:04;10.40;85.10
73777;DHT22;62088;50.240;2.696;2024-03-22T06:44:30;10.40;85.00
73777;DHT22;62088;50.240;2.696;2024-03-22T06:46:56;10.40;85.00
73777;DHT22;62088;50.240;2.696;2024-03-22T06:49:22;10.40;84.90
73777;DHT22;62088;50.240;2.696;2024-03-22T06:51:48;10.40;84.90
73777;DHT22;62088;50.240;2.696;2024-03-22T06:54:15;10.40;84.90
73777;DHT22;62088;50.240;2.696;2024-03-22T06:56:41;10.40;84.80
73777;DHT22;62088;50.240;2.696;2024-03-22T06:59:07;10.40;84.80
73777;DHT22;62088;50.240;2.696;2024-03-22T07:01:33;10.40;84.60
73777;DHT22;62088;50.240;2.696;2024-03-22T07:03:59;10.40;84.60
73777;DHT22;62088;50.240;2.696;2024-03-22T07:06:25;10.50;84.50
73777;DHT22;62088;50.240;2.696;2024-03-22T07:08:52;10.40;84.50
73777;DHT22;62088;50.240;2.696;2024-03-22T07:11:18;10.50;84.40
73777;DHT22;62088;50.240;2.696;2024-03-22T07:13:44;10.50;84.40
73777;DHT22;62088;50.240;2.696;2024-03-22T07:16:10;10.50;84.30
73777;DHT22;62088;50.240;2.696;2024-03-22T07:18:36;10.50;84.30
73777;DHT22;62088;50.240;2.696;2024-03-22T07:21:02;10.50;84.20
73777;DHT22;62088;50.240;2.696;2024-03-22T07:23:29;10.50;84.20
73777;DHT22;62088;50.240;2.696;2024-03-22T07:25:55;10.50;84.10
73777;DHT22;62088;50.240;2.696;2024-03-22T07:28:21;10.60;84.10
73777;DHT22;62088;50.240;2.696;2024-03-22T07:30:47;10.60;84.10
73777;DHT22;62088;50.240;2.696;2024-03-22T07:33:13;10.60;84.00
73777;DHT22;62088;50.240;2.696;2024-03-22T07:35:42;10.60;83.90
73777;DHT22;62088;50.240;2.696;2024-03-22T07:38:08;10.60;83.80
73777;DHT22;62088;50.240;2.696;2024-03-22T07:40:34;10.60;83.70
73777;DHT22;62088;50.240;2.696;2024-03-22T07:43:00;10.60;83.60
73777;DHT22;62088;50.240;2.696;2024-03-22T07:45:34;10.60;83.60
73777;DHT22;62088;50.240;2.696;2024-03-22T07:48:00;10.60;83.50
73777;DHT22;62088;50.240;2.696;2024-03-22T07:50:26;10.70;83.30
73777;DHT22;62088;50.240;2.696;2024-03-22T07:52:52;10.70;83.30
73777;DHT22;62088;50.240;2.696;2024-03-22T07:55:19;10.70;83.20
73777;DHT22;62088;50.240;2.696;2024-03-22T07:57:45;10.70;83.10
73777;DHT22;62088;50.240;2.696;2024-03-22T08:00:12;10.70;83.00
73777;DHT22;62088;50.240;2.696;2024-03-22T08:02:38;10.70;83.00
73777;DHT22;62088;50.240;2.696;2024-03-22T08:05:04;10.70;82.90
73777;DHT22;62088;50.240;2.696;2024-03-22T08:07:31;10.80;82.80
73777;DHT22;62088;50.240;2.696;2024-03-22T08:09:57;10.80;82.70
73777;DHT22;62088;50.240;2.696;2024-03-22T08:12:24;10.80;82.60
73777;DHT22;62088;50.240;2.696;2024-03-22T08:14:50;10.90;82.50
73777;DHT22;62088;50.240;2.696;2024-03-22T08:17:16;10.90;82.50
73777;DHT22;62088;50.240;2.696;2024-03-22T08:19:42;11.00;82.40
73777;DHT22;62088;50.240;2.696;2024-03-22T08:22:10;11.00;82.30
73777;DHT22;62088;50.240;2.696;2024-03-22T08:24:36;11.10;82.20
73777;DHT22;62088;50.240;2.696;2024-03-22T08:27:03;11.20;81.90
73777;DHT22;62088;50.240;2.696;2024-03-22T08:29:29;11.20;81.50
73777;DHT22;62088;50.240;2.696;2024-03-22T08:31:55;11.30;81.30
73777;DHT22;62088;50.240;2.696;2024-03-22T08:34:21;11.20;81.20
73777;DHT22;62088;50.240;2.696;2024-03-22T08:36:47;11.30;81.00
73777;DHT22;62088;50.240;2.696;2024-03-22T08:39:14;11.40;80.90
73777;DHT22;62088;50.240;2.696;2024-03-22T08:41:41;11.40;80.70
73777;DHT22;62088;50.240;2.696;2024-03-22T08:44:07;11.40;80.60
73777;DHT22;62088;50.240;2.696;2024-03-22T08:46:33;11.50;80.40
73777;DHT22;62088;50.240;2.696;2024-03-22T08:48:59;11.60;80.30
73777;DHT22;62088;50.240;2.696;2024-03-22T08:51:25;11.70;80.10
73777;DHT22;62088;50.240;2.696;2024-03-22T08:53:51;11.80;79.90
73777;DHT22;62088;50.240;2.696;2024-03-22T08:56:17;11.90;79.70
73777;DHT22;62088;50.240;2.696;2024-03-22T08:58:43;12.00;79.30
73777;DHT22;62088;50.240;2.696;2024-03-22T09:01:09;12.20;79.10
73777;DHT22;62088;50.240;2.696;2024-03-22T09:03:39;12.30;78.80
73777;DHT22;62088;50.240;2.696;2024-03-22T09:06:05;12.40;78.50
73777;DHT22;62088;50.240;2.696;2024-03-22T09:08:32;12.40;78.10
73777;DHT22;62088;50.240;2.696;2024-03-22T09:10:58;12.40;77.80
73777;DHT22;62088;50.240;2.696;2024-03-22T09:13:25;12.40;77.50
73777;DHT22;62088;50.240;2.696;2024-03-22T09:15:58;12.50;77.20
73777;DHT22;62088;50.240;2.696;2024-03-22T09:18:25;12.50;77.00
73777;DHT22;62088;50.240;2.696;2024-03-22T09:20:52;12.60;76.60
73777;DHT22;62088;50.240;2.696;2024-03-22T09:23:19;12.60;76.10
73777;DHT22;62088;50.240;2.696;2024-03-22T09:25:46;12.80;75.90
73777;DHT22;62088;50.240;2.696;2024-03-22T09:28:13;12.90;75.40
73777;DHT22;62088;50.240;2.696;2024-03-22T09:30:40;12.90;75.10
73777;DHT22;62088;50.240;2.696;2024-03-22T09:33:07;13.00;74.50
73777;DHT22;62088;50.240;2.696;2024-03-22T09:35:35;13.00;74.00
73777;DHT22;62088;50.240;2.696;2024-03-22T09:38:02;12.90;73.90
73777;DHT22;62088;50.240;2.696;2024-03-22T09:40:28;13.00;74.00
73777;DHT22;62088;50.240;2.696;2024-03-22T09:43:01;13.00;74.00
73777;DHT22;62088;50.240;2.696;2024-03-22T09:45:31;12.90;73.80
73777;DHT22;62088;50.240;2.696;2024-03-22T09:47:58;13.00;73.60
73777;DHT22;62088;50.240;2.696;2024-03-22T09:50:25;12.90;73.60
73777;DHT22;62088;50.240;2.696;2024-03-22T09:52:56;12.90;73.60
73777;DHT22;62088;50.240;2.696;2024-03-22T09:55:23;12.90;73.80
73777;DHT22;62088;50.240;2.696;2024-03-22T09:57:50;12.90;73.90
73777;DHT22;62088;50.240;2.696;2024-03-22T10:00:19;13.00;73.90
73777;DHT22;62088;50.240;2.696;2024-03-22T10:02:46;12.90;73.70
73777;DHT22;62088;50.240;2.696;2024-03-22T10:05:13;12.90;73.60
73777;DHT22;62088;50.240;2.696;2024-03-22T10:07:41;12.90;73.40
73777;DHT22;62088;50.240;2.696;2024-03-22T10:10:07;12.90;73.10
73777;DHT22;62088;50.240;2.696;2024-03-22T10:12:33;12.80;73.00
73777;DHT22;62088;50.240;2.696;2024-03-22T10:14:59;12.80;73.00
73777;DHT22;62088;50.240;2.696;2024-03-22T10:17:27;12.80;73.00
73777;DHT22;62088;50.240;2.696;2024-03-22T10:19:54;12.80;73.10
73777;DHT22;62088;50.240;2.696;2024-03-22T10:22:20;12.90;73.10
73777;DHT22;62088;50.240;2.696;2024-03-22T10:24:46;12.90;73.00
73777;DHT22;62088;50.240;2.696;2024-03-22T10:27:13;12.90;72.90
73777;DHT22;62088;50.240;2.696;2024-03-22T10:29:39;12.90;72.60
73777;DHT22;62088;50.240;2.696;2024-03-22T10:32:06;12.90;72.40
73777;DHT22;62088;50.240;2.696;2024-03-22T10:34:34;12.90;72.40
73777;DHT22;62088;50.240;2.696;2024-03-22T10:37:00;12.90;72.50
73777;DHT22;62088;50.240;2.696;2024-03-22T10:39:27;12.90;72.70
73777;DHT22;62088;50.240;2.696;2024-03-22T10:41:54;12.90;72.70
73777;DHT22;62088;50.240;2.696;2024-03-22T10:44:21;12.90;72.60
73777;DHT22;62088;50.240;2.696;2024-03-22T10:46:49;12.90;72.60
73777;DHT22;62088;50.240;2.696;2024-03-22T10:49:19;12.90;72.50
73777;DHT22;62088;50.240;2.696;2024-03-22T10:51:52;12.90;72.70
73777;DHT22;62088;50.240;2.696;2024-03-22T10:54:21;13.00;72.80
73777;DHT22;62088;50.240;2.696;2024-03-22T10:56:48;13.10;72.90
73777;DHT22;62088;50.240;2.696;2024-03-22T10:59:18;13.10;72.90
73777;DHT22;62088;50.240;2.696;2024-03-22T11:01:46;13.10;72.60
73777;DHT22;62088;50.240;2.696;2024-03-22T11:04:14;13.10;72.60
73777;DHT22;62088;50.240;2.696;2024-03-22T11:06:41;13.20;72.80
73777;DHT22;62088;50.240;2.696;2024-03-22T11:09:08;13.20;72.80
73777;DHT22;62088;50.240;2.696;2024-03-22T11:11:35;13.20;72.80
73777;DHT22;62088;50.240;2.696;2024-03-22T11:14:04;13.20;72.90
73777;DHT22;62088;50.240;2.696;2024-03-22T11:16:30;13.20;72.90
73777;DHT22;62088;50.240;2.696;2024-03-22T11:18:56;13.20;72.90
73777;DHT22;62088;50.240;2.696;2024-03-22T11:21:22;13.20;73.00
73777;DHT22;62088;50.240;2.696;2024-03-22T11:23:50;13.20;73.20
73777;DHT22;62088;50.240;2.696;2024-03-22T11:26:16;13.30;73.40
73777;DHT22;62088;50.240;2.696;2024-03-22T11:28:42;13.30;73.40
73777;DHT22;62088;50.240;2.696;2024-03-22T11:31:09;13.30;73.40
73777;DHT22;62088;50.240;2.696;2024-03-22T11:33:35;13.30;73.40
73777;DHT22;62088;50.240;2.696;2024-03-22T11:36:02;13.30;73.40
73777;DHT22;62088;50.240;2.696;2024-03-22T11:38:28;13.40;73.40
73777;DHT22;62088;50.240;2.696;2024-03-22T11:40:57;13.40;73.30
73777;DHT22;62088;50.240;2.696;2024-03-22T11:43:27;13.40;73.30
73777;DHT22;62088;50.240;2.696;2024-03-22T11:45:55;13.30;73.30
73777;DHT22;62088;50.240;2.696;2024-03-22T11:48:21;13.30;73.20
73777;DHT22;62088;50.240;2.696;2024-03-22T11:50:49;13.30;73.10
73777;DHT22;62088;50.240;2.696;2024-03-22T11:53:18;13.30;73.10
73777;DHT22;62088;50.240;2.696;2024-03-22T11:55:44;13.30;73.10
73777;DHT22;62088;50.240;2.696;2024-03-22T11:58:10;13.30;73.20
73777;DHT22;62088;50.240;2.696;2024-03-22T12:00:37;13.20;73.00
73777;DHT22;62088;50.240;2.696;2024-03-22T12:03:04;13.20;73.00
73777;DHT22;62088;50.240;2.696;2024-03-22T12:05:31;13.20;72.90
73777;DHT22;62088;50.240;2.696;2024-03-22T12:07:57;13.10;72.80
73777;DHT22;62088;50.240;2.696;2024-03-22T12:10:23;13.10;72.80
73777;DHT22;62088;50.240;2.696;2024-03-22T12:12:50;13.10;72.70
73777;DHT22;62088;50.240;2.696;2024-03-22T12:15:16;13.10;72.50
73777;DHT22;62088;50.240;2.696;2024-03-22T12:17:42;13.10;72.40
73777;DHT22;62088;50.240;2.696;2024-03-22T12:20:09;13.00;72.40
73777;DHT22;62088;50.240;2.696;2024-03-22T12:22:35;13.00;72.50
73777;DHT22;62088;50.240;2.696;2024-03-22T12:25:01;13.00;72.60
73777;DHT22;62088;50.240;2.696;2024-03-22T12:27:28;13.00;72.70
73777;DHT22;62088;50.240;2.696;2024-03-22T12:29:54;13.00;72.70
73777;DHT22;62088;50.240;2.696;2024-03-22T12:32:20;13.00;72.80
73777;DHT22;62088;50.240;2.696;2024-03-22T12:34:46;13.00;73.00
73777;DHT22;62088;50.240;2.696;2024-03-22T12:37:13;13.00;73.20
73777;DHT22;62088;50.240;2.696;2024-03-22T12:39:39;13.10;73.20
73777;DHT22;62088;50.240;2.696;2024-03-22T12:42:05;13.10;73.40
73777;DHT22;62088;50.240;2.696;2024-03-22T12:44:32;13.10;73.40
73777;DHT22;62088;50.240;2.696;2024-03-22T12:46:58;13.00;73.50
73777;DHT22;62088;50.240;2.696;2024-03-22T12:49:24;13.10;73.60
73777;DHT22;62088;50.240;2.696;2024-03-22T12:51:50;13.00;73.60
73777;DHT22;62088;50.240;2.696;2024-03-22T12:54:17;13.00;73.60
73777;DHT22;62088;50.240;2.696;2024-03-22T12:56:45;12.90;73.70
73777;DHT22;62088;50.240;2.696;2024-03-22T12:59:11;12.90;73.70
73777;DHT22;62088;50.240;2.696;2024-03-22T13:01:37;12.90;73.80
73777;DHT22;62088;50.240;2.696;2024-03-22T13:04:04;12.90;73.80
73777;DHT22;62088;50.240;2.696;2024-03-22T13:06:30;12.90;73.90
73777;DHT22;62088;50.240;2.696;2024-03-22T13:08:56;12.90;74.00
73777;DHT22;62088;50.240;2.696;2024-03-22T13:11:23;12.80;74.20
73777;DHT22;62088;50.240;2.696;2024-03-22T13:13:49;12.80;74.20
73777;DHT22;62088;50.240;2.696;2024-03-22T13:16:15;12.80;74.40
73777;DHT22;62088;50.240;2.696;2024-03-22T13:18:42;12.80;74.50
73777;DHT22;62088;50.240;2.696;2024-03-22T13:21:09;12.80;74.70
73777;DHT22;62088;50.240;2.696;2024-03-22T13:23:37;12.80;74.80
73777;DHT22;62088;50.240;2.696;2024-03-22T13:26:06;12.90;74.90
73777;DHT22;62088;50.240;2.696;2024-03-22T13:28:33;12.80;75.00
73777;DHT22;62088;50.240;2.696;2024-03-22T13:31:02;12.90;75.00
73777;DHT22;62088;50.240;2.696;2024-03-22T13:33:30;12.90;75.10
73777;DHT22;62088;50.240;2.696;2024-03-22T13:35:56;12.80;75.10
73777;DHT22;62088;50.240;2.696;2024-03-22T13:38:22;12.80;75.20
73777;DHT22;62088;50.240;2.696;2024-03-22T13:40:55;12.80;75.10
73777;DHT22;62088;50.240;2.696;2024-03-22T13:43:28;12.80;75.10
73777;DHT22;62088;50.240;2.696;2024-03-22T13:45:54;12.80;75.10
73777;DHT22;62088;50.240;2.696;2024-03-22T13:48:21;12.80;75.20
73777;DHT22;62088;50.240;2.696;2024-03-22T13:50:52;12.80;75.20
73777;DHT22;62088;50.240;2.696;2024-03-22T13:53:19;12.80;75.30
73777;DHT22;62088;50.240;2.696;2024-03-22T13:55:45;12.70;75.30
73777;DHT22;62088;50.240;2.696;2024-03-22T13:58:11;12.80;75.30
73777;DHT22;62088;50.240;2.696;2024-03-22T14:00:38;12.80;75.30
73777;DHT22;62088;50.240;2.696;2024-03-22T14:03:04;12.70;75.40
73777;DHT22;62088;50.240;2.696;2024-03-22T14:05:31;12.70;75.50
73777;DHT22;62088;50.240;2.696;2024-03-22T14:08:00;12.60;75.70
73777;DHT22;62088;50.240;2.696;2024-03-22T14:10:26;12.60;75.80
73777;DHT22;62088;50.240;2.696;2024-03-22T14:12:53;12.60;76.10
73777;DHT22;62088;50.240;2.696;2024-03-22T14:15:19;12.60;76.30
73777;DHT22;62088;50.240;2.696;2024-03-22T14:17:46;12.60;76.40
73777;DHT22;62088;50.240;2.696;2024-03-22T14:20:12;12.60;76.60
73777;DHT22;62088;50.240;2.696;2024-03-22T14:22:41;12.50;76.70
73777;DHT22;62088;50.240;2.696;2024-03-22T14:25:08;12.50;76.80
73777;DHT22;62088;50.240;2.696;2024-03-22T14:27:35;12.60;76.80
73777;DHT22;62088;50.240;2.696;2024-03-22T14:30:02;12.60;76.90
73777;DHT22;62088;50.240;2.696;2024-03-22T14:32:33;12.60;77.00
73777;DHT22;62088;50.240;2.696;2024-03-22T14:34:59;12.60;77.10
73777;DHT22;62088;50.240;2.696;2024-03-22T14:37:26;12.50;77.10
73777;DHT22;62088;50.240;2.696;2024-03-22T14:39:52;12.50;77.20
73777;DHT22;62088;50.240;2.696;2024-03-22T14:42:18;12.50;77.30
73777;DHT22;62088;50.240;2.696;2024-03-22T14:44:44;12.40;77.50
73777;DHT22;62088;50.240;2.696;2024-03-22T14:47:11;12.40;77.60
73777;DHT22;62088;50.240;2.696;2024-03-22T14:49:37;12.40;77.80
73777;DHT22;62088;50.240;2.696;2024-03-22T14:52:03;12.40;77.90
73777;DHT22;62088;50.240;2.696;2024-03-22T14:54:30;12.40;78.00
73777;DHT22;62088;50.240;2.696;2024-03-22T14:56:56;12.40;78.10
73777;DHT22;62088;50.240;2.696;2024-03-22T14:59:22;12.40;78.10
73777;DHT22;62088;50.240;2.696;2024-03-22T15:01:48;12.30;78.20
73777;DHT22;62088;50.240;2.696;2024-03-22T15:04:14;12.30;78.40
73777;DHT22;62088;50.240;2.696;2024-03-22T15:06:40;12.30;78.50
73777;DHT22;62088;50.240;2.696;2024-03-22T15:09:06;12.30;78.70
73777;DHT22;62088;50.240;2.696;2024-03-22T15:11:36;12.30;78.80
73777;DHT22;62088;50.240;2.696;2024-03-22T15:14:02;12.20;79.10
73777;DHT22;62088;50.240;2.696;2024-03-22T15:16:29;12.20;79.30
73777;DHT22;62088;50.240;2.696;2024-03-22T15:18:55;12.20;79.50
73777;DHT22;62088;50.240;2.696;2024-03-22T15:21:22;12.10;79.70
73777;DHT22;62088;50.240;2.696;2024-03-22T15:23:48;12.10;79.90
73777;DHT22;62088;50.240;2.696;2024-03-22T15:26:14;12.10;80.10